sensor_id;sensor_type;location;lat;lon;timestamp;pressure;altitude;pressure_sealevel;temperature;humidity
66664;BME280;59683;51.428;-1.994;2023-08-08T00:00:13;100989.63;;;10.22;100.00
66664;BME280;59683;51.428;-1.994;2023-08-08T00:02:39;100986.97;;;10.35;100.00
66664;BME280;59683;51.428;-1.994;2023-08-08T00:05:04;100984.63;;;10.43;100.00
66664;BME280;59683;51.428;-1.994;2023-08-08T00:07:30;100982.25;;;10.51;100.00
66664;BME280;59683;51.428;-1.994;2023-08-08T00:09:56;100972.69;;;10.61;100.00
66664;BME280;59683;51.428;-1.994;2023-08-08T00:12:22;100977.19;;;10.72;100.00
66664;BME280;59683;51.428;-1.994;2023-08-08T00:14:48;100985.38;;;10.80;100.00
66664;BME280;59683;51.428;-1.994;2023-08-08T00:17:13;100982.25;;;10.86;100.00
66664;BME280;59683;51.428;-1.994;2023-08-08T00:19:39;100994.09;;;10.93;100.00
66664;BME280;59683;51.428;-1.994;2023-08-08T00:22:05;100984.09;;;10.97;100.00
66664;BME280;59683;51.428;-1.994;2023-08-08T00:24:31;100977.97;;;10.97;100.00
66664;BME280;59683;51.428;-1.994;2023-08-08T00:26:56;100984.63;;;11.02;100.00
66664;BME280;59683;51.428;-1.994;2023-08-08T00:29:21;100979.06;;;11.05;100.00
66664;BME280;59683;51.428;-1.994;2023-08-08T00:31:47;100977.41;;;11.04;100.00
66664;BME280;59683;51.428;-1.994;2023-08-08T00:34:12;100966.94;;;11.03;100.00
66664;BME280;59683;51.428;-1.994;2023-08-08T00:36:38;100962.56;;;11.02;100.00
66664;BME280;59683;51.428;-1.994;2023-08-08T00:39:03;100953.06;;;10.99;100.00
66664;BME280;59683;51.428;-1.994;2023-08-08T00:41:28;100942.84;;;10.94;100.00
66664;BME280;59683;51.428;-1.994;2023-08-08T00:43:54;100934.38;;;10.89;100.00
66664;BME280;59683;51.428;-1.994;2023-08-08T00:46:21;100923.06;;;10.87;100.00
66664;BME280;59683;51.428;-1.994;2023-08-08T00:48:47;100917.03;;;10.85;100.00
66664;BME280;59683;51.428;-1.994;2023-08-08T00:51:13;100917.88;;;10.86;100.00
66664;BME280;59683;51.428;-1.994;2023-08-08T00:53:39;100918.84;;;10.85;100.00
66664;BME280;59683;51.428;-1.994;2023-08-08T00:56:04;100917.78;;;10.87;100.00
66664;BME280;59683;51.428;-1.994;2023-08-08T00:58:30;100905.38;;;10.88;100.00
66664;BME280;59683;51.428;-1.994;2023-08-08T01:00:55;100902.72;;;10.88;100.00
66664;BME280;59683;51.428;-1.994;2023-08-08T01:03:25;100901.41;;;10.93;100.00
66664;BME280;59683;51.428;-1.994;2023-08-08T01:06:08;100900.19;;;10.98;100.00
66664;BME280;59683;51.428;-1.994;2023-08-08T01:08:43;100895.88;;;10.97;100.00
66664;BME280;59683;51.428;-1.994;2023-08-08T01:11:11;100897.44;;;10.99;100.00
66664;BME280;59683;51.428;-1.994;2023-08-08T01:13:37;100906.72;;;11.05;100.00
66664;BME280;59683;51.428;-1.994;2023-08-08T01:16:03;100899.88;;;11.02;100.00
66664;BME280;59683;51.428;-1.994;2023-08-08T01:18:31;100901.94;;;11.10;100.00
66664;BME280;59683;51.428;-1.994;2023-08-08T01:20:57;100908.06;;;11.10;100.00
66664;BME280;59683;51.428;-1.994;2023-08-08T01:23:43;100900.13;;;11.10;100.00
66664;BME280;59683;51.428;-1.994;2023-08-08T01:26:10;100896.63;;;11.10;100.00
66664;BME280;59683;51.428;-1.994;2023-08-08T01:28:36;100885.53;;;11.05;100.00
66664;BME280;59683;51.428;-1.994;2023-08-08T01:31:01;100890.56;;;10.97;100.00
66664;BME280;59683;51.428;-1.994;2023-08-08T01:33:27;100898.38;;;10.87;100.00
66664;BME280;59683;51.428;-1.994;2023-08-08T01:36:00;100906.44;;;10.85;100.00
66664;BME280;59683;51.428;-1.994;2023-08-08T01:38:30;100904.03;;;10.82;100.00
66664;BME280;59683;51.428;-1.994;2023-08-08T01:40:57;100900.66;;;10.80;100.00
66664;BME280;59683;51.428;-1.994;2023-08-08T01:43:24;100891.59;;;10.72;100.00
66664;BME280;59683;51.428;-1.994;2023-08-08T01:45:50;100886.66;;;10.67;100.00
66664;BME280;59683;51.428;-1.994;2023-08-08T01:48:16;100884.34;;;10.62;100.00
66664;BME280;59683;51.428;-1.994;2023-08-08T01:50:41;100882.28;;;10.55;100.00
66664;BME280;59683;51.428;-1.994;2023-08-08T01:53:07;100878.41;;;10.48;100.00
66664;BME280;59683;51.428;-1.994;2023-08-08T01:55:32;100878.03;;;10.41;100.00
66664;BME280;59683;51.428;-1.994;2023-08-08T01:57:58;100882.19;;;10.32;100.00
66664;BME280;59683;51.428;-1.994;2023-08-08T02:00:24;100877.56;;;10.23;100.00
66664;BME280;59683;51.428;-1.994;2023-08-08T02:02:49;100880.53;;;10.18;100.00
66664;BME280;59683;51.428;-1.994;2023-08-08T02:05:15;100869.69;;;10.10;100.00
66664;BME280;59683;51.428;-1.994;2023-08-08T02:07:40;100878.59;;;10.09;100.00
66664;BME280;59683;51.428;-1.994;2023-08-08T02:10:06;100868.34;;;10.05;100.00
66664;BME280;59683;51.428;-1.994;2023-08-08T02:12:31;100879.63;;;10.07;100.00
66664;BME280;59683;51.428;-1.994;2023-08-08T02:14:57;100871.63;;;10.08;100.00
66664;BME280;59683;51.428;-1.994;2023-08-08T02:17:25;100877.19;;;10.16;100.00
66664;BME280;59683;51.428;-1.994;2023-08-08T02:19:51;100887.09;;;10.26;100.00
66664;BME280;59683;51.428;-1.994;2023-08-08T02:22:17;100878.16;;;10.39;100.00
66664;BME280;59683;51.428;-1.994;2023-08-08T02:24:42;100877.22;;;10.52;100.00
66664;BME280;59683;51.428;-1.994;2023-08-08T02:27:07;100885.09;;;10.64;100.00
66664;BME280;59683;51.428;-1.994;2023-08-08T02:29:33;100891.28;;;10.76;100.00
66664;BME280;59683;51.428;-1.994;2023-08-08T02:31:58;100885.38;;;10.84;100.00
66664;BME280;59683;51.428;-1.994;2023-08-08T02:34:24;100880.56;;;10.89;100.00
66664;BME280;59683;51.428;-1.994;2023-08-08T02:36:49;100884.66;;;10.93;100.00
66664;BME280;59683;51.428;-1.994;2023-08-08T02:39:15;100877.47;;;10.95;100.00
66664;BME280;59683;51.428;-1.994;2023-08-08T02:41:40;100892.88;;;11.01;100.00
66664;BME280;59683;51.428;-1.994;2023-08-08T02:44:06;100879.53;;;11.03;100.00
66664;BME280;59683;51.428;-1.994;2023-08-08T02:46:32;100878.94;;;11.10;100.00
66664;BME280;59683;51.428;-1.994;2023-08-08T02:48:57;100889.75;;;11.18;100.00
66664;BME280;59683;51.428;-1.994;2023-08-08T02:51:22;100890.00;;;11.27;100.00
66664;BME280;59683;51.428;-1.994;2023-08-08T02:53:48;100882.44;;;11.33;100.00
66664;BME280;59683;51.428;-1.994;2023-08-08T02:56:13;100878.34;;;11.40;100.00
66664;BME280;59683;51.428;-1.994;2023-08-08T02:58:38;100882.53;;;11.43;100.00
66664;BME280;59683;51.428;-1.994;2023-08-08T03:01:04;100871.59;;;11.48;100.00
66664;BME280;59683;51.428;-1.994;2023-08-08T03:03:29;100865.56;;;11.46;100.00
66664;BME280;59683;51.428;-1.994;2023-08-08T03:05:55;100860.16;;;11.47;100.00
66664;BME280;59683;51.428;-1.994;2023-08-08T03:08:20;100865.44;;;11.47;100.00
66664;BME280;59683;51.428;-1.994;2023-08-08T03:10:45;100863.50;;;11.49;100.00
66664;BME280;59683;51.428;-1.994;2023-08-08T03:13:11;100854.72;;;11.49;100.00
66664;BME280;59683;51.428;-1.994;2023-08-08T03:15:36;100848.34;;;11.51;100.00
66664;BME280;59683;51.428;-1.994;2023-08-08T03:18:02;100859.41;;;11.56;100.00
66664;BME280;59683;51.428;-1.994;2023-08-08T03:20:28;100861.06;;;11.57;100.00
66664;BME280;59683;51.428;-1.994;2023-08-08T03:22:54;100865.31;;;11.60;100.00
66664;BME280;59683;51.428;-1.994;2023-08-08T03:25:19;100863.50;;;11.60;100.00
66664;BME280;59683;51.428;-1.994;2023-08-08T03:27:44;100867.56;;;11.64;100.00
66664;BME280;59683;51.428;-1.994;2023-08-08T03:30:10;100855.16;;;11.65;100.00
66664;BME280;59683;51.428;-1.994;2023-08-08T03:32:36;100862.75;;;11.70;100.00
66664;BME280;59683;51.428;-1.994;2023-08-08T03:35:01;100857.34;;;11.71;100.00
66664;BME280;59683;51.428;-1.994;2023-08-08T03:37:27;100857.78;;;11.76;100.00
66664;BME280;59683;51.428;-1.994;2023-08-08T03:39:52;100851.53;;;11.77;100.00
66664;BME280;59683;51.428;-1.994;2023-08-08T03:42:17;100851.28;;;11.80;100.00
66664;BME280;59683;51.428;-1.994;2023-08-08T03:44:43;100861.88;;;11.80;100.00
66664;BME280;59683;51.428;-1.994;2023-08-08T03:47:10;100860.81;;;11.83;100.00
66664;BME280;59683;51.428;-1.994;2023-08-08T03:49:35;100848.31;;;11.85;100.00
66664;BME280;59683;51.428;-1.994;2023-08-08T03:52:01;100846.59;;;11.84;100.00
66664;BME280;59683;51.428;-1.994;2023-08-08T03:54:26;100846.69;;;11.82;100.00
66664;BME280;59683;51.428;-1.994;2023-08-08T03:56:51;100846.81;;;11.81;100.00
66664;BME280;59683;51.428;-1.994;2023-08-08T03:59:17;100846.69;;;11.82;100.00
66664;BME280;59683;51.428;-1.994;2023-08-08T04:01:42;100838.63;;;11.84;100.00
66664;BME280;59683;51.428;-1.994;2023-08-08T04:04:08;100840.44;;;11.83;100.00
66664;BME280;59683;51.428;-1.994;2023-08-08T04:06:33;100832.59;;;11.82;100.00
66664;BME280;59683;51.428;-1.994;2023-08-08T04:08:58;100830.69;;;11.84;100.00
66664;BME280;59683;51.428;-1.994;2023-08-08T04:11:26;100827.78;;;11.87;100.00
66664;BME280;59683;51.428;-1.994;2023-08-08T04:13:51;100831.28;;;11.87;100.00
66664;BME280;59683;51.428;-1.994;2023-08-08T04:16:17;100829.34;;;11.89;100.00
66664;BME280;59683;51.428;-1.994;2023-08-08T04:18:42;100835.50;;;11.90;100.00
66664;BME280;59683;51.428;-1.994;2023-08-08T04:21:07;100832.00;;;11.89;100.00
66664;BME280;59683;51.428;-1.994;2023-08-08T04:23:33;100837.31;;;11.89;100.00
66664;BME280;59683;51.428;-1.994;2023-08-08T04:25:58;100830.19;;;11.90;100.00
66664;BME280;59683;51.428;-1.994;2023-08-08T04:28:23;100826.56;;;11.91;100.00
66664;BME280;59683;51.428;-1.994;2023-08-08T04:30:49;100831.03;;;11.90;100.00
66664;BME280;59683;51.428;-1.994;2023-08-08T04:33:14;100817.06;;;11.88;100.00
66664;BME280;59683;51.428;-1.994;2023-08-08T04:35:40;100827.31;;;11.93;100.00
66664;BME280;59683;51.428;-1.994;2023-08-08T04:38:05;100823.81;;;11.93;100.00
66664;BME280;59683;51.428;-1.994;2023-08-08T04:40:31;100816.69;;;11.93;100.00
66664;BME280;59683;51.428;-1.994;2023-08-08T04:42:56;100817.38;;;11.95;100.00
66664;BME280;59683;51.428;-1.994;2023-08-08T04:45:22;100824.41;;;11.96;100.00
66664;BME280;59683;51.428;-1.994;2023-08-08T04:47:50;100819.78;;;11.98;100.00
66664;BME280;59683;51.428;-1.994;2023-08-08T04:50:15;100824.00;;;12.01;100.00
66664;BME280;59683;51.428;-1.994;2023-08-08T04:52:40;100814.94;;;12.03;100.00
66664;BME280;59683;51.428;-1.994;2023-08-08T04:55:06;100812.19;;;12.05;100.00
66664;BME280;59683;51.428;-1.994;2023-08-08T04:57:31;100819.16;;;12.06;100.00
66664;BME280;59683;51.428;-1.994;2023-08-08T04:59:57;100813.59;;;12.09;100.00
66664;BME280;59683;51.428;-1.994;2023-08-08T05:02:22;100813.34;;;12.12;100.00
66664;BME280;59683;51.428;-1.994;2023-08-08T05:04:48;100808.88;;;12.12;100.00
66664;BME280;59683;51.428;-1.994;2023-08-08T05:07:13;100806.69;;;12.18;100.00
66664;BME280;59683;51.428;-1.994;2023-08-08T05:09:39;100806.00;;;12.15;100.00
66664;BME280;59683;51.428;-1.994;2023-08-08T05:12:04;100803.34;;;12.15;100.00
66664;BME280;59683;51.428;-1.994;2023-08-08T05:14:30;100812.13;;;12.16;100.00
66664;BME280;59683;51.428;-1.994;2023-08-08T05:16:55;100807.81;;;12.15;100.00
66664;BME280;59683;51.428;-1.994;2023-08-08T05:19:20;100810.47;;;12.15;100.00
66664;BME280;59683;51.428;-1.994;2023-08-08T05:21:46;100808.75;;;12.14;100.00
66664;BME280;59683;51.428;-1.994;2023-08-08T05:24:11;100803.13;;;12.07;100.00
66664;BME280;59683;51.428;-1.994;2023-08-08T05:26:37;100801.44;;;12.06;100.00
66664;BME280;59683;51.428;-1.994;2023-08-08T05:29:02;100806.28;;;12.01;100.00
66664;BME280;59683;51.428;-1.994;2023-08-08T05:31:27;100808.47;;;11.96;100.00
66664;BME280;59683;51.428;-1.994;2023-08-08T05:33:53;100817.97;;;11.99;100.00
66664;BME280;59683;51.428;-1.994;2023-08-08T05:36:18;100817.00;;;12.00;100.00
66664;BME280;59683;51.428;-1.994;2023-08-08T12:51:54;100534.31;;;18.83;100.00
66664;BME280;59683;51.428;-1.994;2023-08-08T18:25:48;100517.50;;;17.55;100.00
66664;BME280;59683;51.428;-1.994;2023-08-08T18:28:14;100520.38;;;17.54;100.00
66664;BME280;59683;51.428;-1.994;2023-08-08T18:30:40;100525.56;;;17.47;100.00
66664;BME280;59683;51.428;-1.994;2023-08-08T18:33:06;100524.41;;;17.41;100.00
66664;BME280;59683;51.428;-1.994;2023-08-08T18:35:31;100520.53;;;17.44;100.00
66664;BME280;59683;51.428;-1.994;2023-08-08T18:37:57;100522.72;;;17.40;100.00
66664;BME280;59683;51.428;-1.994;2023-08-08T18:40:22;100514.19;;;17.37;100.00
66664;BME280;59683;51.428;-1.994;2023-08-08T18:42:48;100514.38;;;17.35;100.00
66664;BME280;59683;51.428;-1.994;2023-08-08T18:45:13;100514.88;;;17.31;100.00
66664;BME280;59683;51.428;-1.994;2023-08-08T18:47:39;100520.22;;;17.31;100.00
66664;BME280;59683;51.428;-1.994;2023-08-08T18:50:06;100519.72;;;17.27;100.00
66664;BME280;59683;51.428;-1.994;2023-08-08T18:52:32;100512.19;;;17.22;100.00
66664;BME280;59683;51.428;-1.994;2023-08-08T18:54:57;100517.22;;;17.17;100.00
66664;BME280;59683;51.428;-1.994;2023-08-08T18:57:23;100516.88;;;17.12;100.00
66664;BME280;59683;51.428;-1.994;2023-08-08T18:59:48;100512.38;;;17.05;100.00
66664;BME280;59683;51.428;-1.994;2023-08-08T19:02:13;100505.84;;;16.99;100.00
66664;BME280;59683;51.428;-1.994;2023-08-08T19:04:39;100515.19;;;16.95;100.00
66664;BME280;59683;51.428;-1.994;2023-08-08T19:07:04;100517.22;;;16.93;100.00
66664;BME280;59683;51.428;-1.994;2023-08-08T19:09:30;100518.38;;;16.90;100.00
66664;BME280;59683;51.428;-1.994;2023-08-08T19:11:55;100519.53;;;16.88;100.00
66664;BME280;59683;51.428;-1.994;2023-08-08T19:14:21;100526.22;;;16.84;100.00
66664;BME280;59683;51.428;-1.994;2023-08-08T19:16:46;100527.38;;;16.81;100.00
66664;BME280;59683;51.428;-1.994;2023-08-08T19:19:11;100524.53;;;16.74;100.00
66664;BME280;59683;51.428;-1.994;2023-08-08T19:21:38;100537.06;;;16.74;100.00
66664;BME280;59683;51.428;-1.994;2023-08-08T19:24:04;100540.03;;;16.71;100.00
66664;BME280;59683;51.428;-1.994;2023-08-08T19:26:29;100543.03;;;16.68;100.00
66664;BME280;59683;51.428;-1.994;2023-08-08T19:28:55;100538.84;;;16.65;100.00
66664;BME280;59683;51.428;-1.994;2023-08-08T19:31:20;100533.16;;;16.60;100.00
66664;BME280;59683;51.428;-1.994;2023-08-08T19:33:45;100539.66;;;16.58;100.00
66664;BME280;59683;51.428;-1.994;2023-08-08T19:36:11;100542.63;;;16.55;100.00
66664;BME280;59683;51.428;-1.994;2023-08-08T19:38:36;100545.50;;;16.53;100.00
66664;BME280;59683;51.428;-1.994;2023-08-08T19:41:02;100552.16;;;16.49;100.00
66664;BME280;59683;51.428;-1.994;2023-08-08T19:43:27;100565.16;;;16.44;100.00
66664;BME280;59683;51.428;-1.994;2023-08-08T19:45:53;100570.63;;;16.34;100.00
66664;BME280;59683;51.428;-1.994;2023-08-08T19:48:20;100572.22;;;16.19;100.00
66664;BME280;59683;51.428;-1.994;2023-08-08T19:50:45;100583.19;;;16.08;100.00
66664;BME280;59683;51.428;-1.994;2023-08-08T19:53:11;100586.97;;;15.97;100.00
66664;BME280;59683;51.428;-1.994;2023-08-08T19:55:36;100594.91;;;15.89;100.00
66664;BME280;59683;51.428;-1.994;2023-08-08T19:58:02;100602.03;;;15.80;100.00
66664;BME280;59683;51.428;-1.994;2023-08-08T20:00:28;100602.81;;;15.72;100.00
66664;BME280;59683;51.428;-1.994;2023-08-08T20:02:53;100605.25;;;15.66;100.00
66664;BME280;59683;51.428;-1.994;2023-08-08T20:05:19;100611.72;;;15.63;100.00
66664;BME280;59683;51.428;-1.994;2023-08-08T20:07:45;100618.50;;;15.58;100.00
66664;BME280;59683;51.428;-1.994;2023-08-08T20:10:10;100617.59;;;15.49;100.00
66664;BME280;59683;51.428;-1.994;2023-08-08T20:12:36;100625.22;;;15.44;100.00
66664;BME280;59683;51.428;-1.994;2023-08-08T20:15:03;100619.66;;;15.37;100.00
66664;BME280;59683;51.428;-1.994;2023-08-08T20:17:28;100619.00;;;15.35;100.00
66664;BME280;59683;51.428;-1.994;2023-08-08T20:19:54;100633.81;;;15.38;100.00
66664;BME280;59683;51.428;-1.994;2023-08-08T20:22:19;100634.28;;;15.33;100.00
66664;BME280;59683;51.428;-1.994;2023-08-08T20:24:45;100641.91;;;15.28;100.00
66664;BME280;59683;51.428;-1.994;2023-08-08T20:27:10;100627.88;;;15.26;100.00
66664;BME280;59683;51.428;-1.994;2023-08-08T20:29:35;100643.06;;;15.25;100.00
66664;BME280;59683;51.428;-1.994;2023-08-08T20:32:01;100646.00;;;15.22;100.00
66664;BME280;59683;51.428;-1.994;2023-08-08T20:34:26;100651.50;;;15.21;100.00
66664;BME280;59683;51.428;-1.994;2023-08-08T20:36:55;100648.31;;;15.17;100.00
66664;BME280;59683;51.428;-1.994;2023-08-08T20:39:21;100656.00;;;15.20;100.00
66664;BME280;59683;51.428;-1.994;2023-08-08T20:41:46;100665.31;;;15.16;100.00
66664;BME280;59683;51.428;-1.994;2023-08-08T20:44:12;100657.44;;;15.15;100.00
66664;BME280;59683;51.428;-1.994;2023-08-08T20:46:37;100667.13;;;15.16;100.00
66664;BME280;59683;51.428;-1.994;2023-08-08T20:49:03;100673.44;;;15.15;100.00
66664;BME280;59683;51.428;-1.994;2023-08-08T20:51:28;100667.56;;;15.11;100.00
66664;BME280;59683;51.428;-1.994;2023-08-08T20:53:53;100668.38;;;15.12;100.00
66664;BME280;59683;51.428;-1.994;2023-08-08T20:56:19;100680.22;;;15.09;100.00
66664;BME280;59683;51.428;-1.994;2023-08-08T20:58:46;100683.00;;;15.07;100.00
66664;BME280;59683;51.428;-1.994;2023-08-08T21:01:12;100691.72;;;15.10;100.00
66664;BME280;59683;51.428;-1.994;2023-08-08T21:03:37;100694.66;;;15.06;100.00
66664;BME280;59683;51.428;-1.994;2023-08-08T21:06:03;100698.16;;;15.07;100.00
66664;BME280;59683;51.428;-1.994;2023-08-08T21:08:29;100691.16;;;15.06;100.00
66664;BME280;59683;51.428;-1.994;2023-08-08T21:10:55;100701.13;;;15.04;100.00
66664;BME280;59683;51.428;-1.994;2023-08-08T21:13:20;100711.78;;;15.04;100.00
66664;BME280;59683;51.428;-1.994;2023-08-08T21:15:46;100712.94;;;15.01;100.00
66664;BME280;59683;51.428;-1.994;2023-08-08T21:18:11;100714.63;;;15.02;100.00
66664;BME280;59683;51.428;-1.994;2023-08-08T21:20:38;100728.78;;;15.03;100.00
66664;BME280;59683;51.428;-1.994;2023-08-08T21:23:03;100716.56;;;15.00;100.00
66664;BME280;59683;51.428;-1.994;2023-08-08T21:25:29;100725.28;;;15.02;100.00
66664;BME280;59683;51.428;-1.994;2023-08-08T21:27:54;100729.78;;;15.02;100.00
66664;BME280;59683;51.428;-1.994;2023-08-08T21:30:19;100720.94;;;15.01;100.00
66664;BME280;59683;51.428;-1.994;2023-08-08T21:32:45;100724.72;;;14.99;100.00
66664;BME280;59683;51.428;-1.994;2023-08-08T21:35:10;100723.91;;;14.98;100.00
66664;BME280;59683;51.428;-1.994;2023-08-08T21:37:35;100717.84;;;14.96;100.00
66664;BME280;59683;51.428;-1.994;2023-08-08T21:40:04;100722.66;;;14.93;100.00
66664;BME280;59683;51.428;-1.994;2023-08-08T21:42:29;100723.81;;;14.90;100.00
66664;BME280;59683;51.428;-1.994;2023-08-08T21:44:55;100721.59;;;14.86;100.00
66664;BME280;59683;51.428;-1.994;2023-08-08T21:47:20;100719.34;;;14.81;100.00
66664;BME280;59683;51.428;-1.994;2023-08-08T21:49:46;100727.78;;;14.76;100.00
66664;BME280;59683;51.428;-1.994;2023-08-08T21:52:11;100716.56;;;14.73;100.00
66664;BME280;59683;51.428;-1.994;2023-08-08T21:54:37;100721.91;;;14.73;100.00
66664;BME280;59683;51.428;-1.994;2023-08-08T21:57:03;100722.91;;;14.72;100.00
66664;BME280;59683;51.428;-1.994;2023-08-08T21:59:28;100719.69;;;14.68;100.00
66664;BME280;59683;51.428;-1.994;2023-08-08T22:01:53;100719.13;;;14.65;100.00
66664;BME280;59683;51.428;-1.994;2023-08-08T22:04:19;100731.06;;;14.61;100.00
66664;BME280;59683;51.428;-1.994;2023-08-08T22:06:44;100728.69;;;14.57;100.00
66664;BME280;59683;51.428;-1.994;2023-08-08T22:09:10;100731.63;;;14.54;100.00
66664;BME280;59683;51.428;-1.994;2023-08-08T22:11:36;100731.78;;;14.53;100.00
66664;BME280;59683;51.428;-1.994;2023-08-08T22:14:01;100732.06;;;14.50;100.00
66664;BME280;59683;51.428;-1.994;2023-08-08T22:16:27;100728.81;;;14.46;100.00
66664;BME280;59683;51.428;-1.994;2023-08-08T22:18:52;100729.13;;;14.43;100.00
66664;BME280;59683;51.428;-1.994;2023-08-08T22:21:19;100725.66;;;14.33;100.00
66664;BME280;59683;51.428;-1.994;2023-08-08T22:23:45;100727.06;;;14.27;100.00
66664;BME280;59683;51.428;-1.994;2023-08-08T22:26:10;100720.63;;;14.20;100.00
66664;BME280;59683;51.428;-1.994;2023-08-08T22:28:36;100719.50;;;14.13;100.00
66664;BME280;59683;51.428;-1.994;2023-08-08T22:31:01;100717.00;;;14.12;100.00
66664;BME280;59683;51.428;-1.994;2023-08-08T22:33:26;100718.94;;;14.09;100.00
66664;BME280;59683;51.428;-1.994;2023-08-08T22:35:52;100727.09;;;14.08;100.00
66664;BME280;59683;51.428;-1.994;2023-08-08T22:38:17;100720.22;;;14.05;100.00
66664;BME280;59683;51.428;-1.994;2023-08-08T22:40:43;100716.56;;;14.06;100.00
66664;BME280;59683;51.428;-1.994;2023-08-08T22:43:08;100719.22;;;14.06;100.00
66664;BME280;59683;51.428;-1.994;2023-08-08T22:45:34;100723.44;;;14.09;100.00
66664;BME280;59683;51.428;-1.994;2023-08-08T22:47:59;100716.44;;;14.08;100.00
66664;BME280;59683;51.428;-1.994;2023-08-08T22:50:24;100724.44;;;14.08;100.00
66664;BME280;59683;51.428;-1.994;2023-08-08T22:52:50;100716.16;;;14.11;100.00
66664;BME280;59683;51.428;-1.994;2023-08-08T22:55:15;100718.66;;;14.13;100.00
66664;BME280;59683;51.428;-1.994;2023-08-08T22:57:41;100716.72;;;14.15;100.00
66664;BME280;59683;51.428;-1.994;2023-08-08T23:00:06;100729.19;;;14.14;100.00
66664;BME280;59683;51.428;-1.994;2023-08-08T23:02:33;100727.50;;;14.13;100.00
66664;BME280;59683;51.428;-1.994;2023-08-08T23:04:58;100725.09;;;14.10;100.00
66664;BME280;59683;51.428;-1.994;2023-08-08T23:07:24;100728.06;;;14.07;100.00
66664;BME280;59683;51.428;-1.994;2023-08-08T23:09:49;100729.34;;;14.03;100.00
66664;BME280;59683;51.428;-1.994;2023-08-08T23:12:15;100726.41;;;13.96;100.00
66664;BME280;59683;51.428;-1.994;2023-08-08T23:14:41;100726.94;;;13.90;100.00
66664;BME280;59683;51.428;-1.994;2023-08-08T23:17:07;100720.22;;;13.76;100.00
66664;BME280;59683;51.428;-1.994;2023-08-08T23:19:33;100728.34;;;13.65;100.00
66664;BME280;59683;51.428;-1.994;2023-08-08T23:21:58;100732.97;;;13.63;100.00
66664;BME280;59683;51.428;-1.994;2023-08-08T23:24:23;100731.41;;;13.60;100.00
66664;BME280;59683;51.428;-1.994;2023-08-08T23:26:49;100740.25;;;13.61;100.00
66664;BME280;59683;51.428;-1.994;2023-08-08T23:29:15;100739.66;;;13.57;100.00
66664;BME280;59683;51.428;-1.994;2023-08-08T23:31:41;100738.00;;;13.56;100.00
66664;BME280;59683;51.428;-1.994;2023-08-08T23:34:06;100737.44;;;13.53;100.00
66664;BME280;59683;51.428;-1.994;2023-08-08T23:36:32;100729.19;;;13.56;100.00
66664;BME280;59683;51.428;-1.994;2023-08-08T23:38:57;100732.38;;;13.50;100.00
66664;BME280;59683;51.428;-1.994;2023-08-08T23:41:22;100737.44;;;13.43;100.00
66664;BME280;59683;51.428;-1.994;2023-08-08T23:43:48;100732.66;;;13.37;100.00
66664;BME280;59683;51.428;-1.994;2023-08-08T23:46:14;100731.66;;;13.28;100.00
66664;BME280;59683;51.428;-1.994;2023-08-08T23:48:39;100742.81;;;13.22;100.00
66664;BME280;59683;51.428;-1.994;2023-08-08T23:51:05;100745.41;;;13.12;100.00
66664;BME280;59683;51.428;-1.994;2023-08-08T23:53:30;100746.81;;;13.07;100.00
66664;BME280;59683;51.428;-1.994;2023-08-08T23:55:56;100741.75;;;13.04;100.00
66664;BME280;59683;51.428;-1.994;2023-08-08T23:58:22;100737.00;;;12.98;100.00
